Terminal Aerodrome Forecast
Issued by NWS

Home | Current Version | Previous Version | Text Only | Print | Product List | Glossary On
Versions: 1 2 3 4 5 6 7 8 9 10 11 12 13 14 15 16 17 18 19 20 21
000
FTAK31 PAJN 290200 AAA
TAFAPG
TAF AMD
PAPG 290258Z 2903/2924 VRB03KT 6SM -SHRA SCT025 OVC035
      TEMPO 2903/2906 VRB05G15KT 5SM SHRA BR FEW015 BKN025 OVC035
     FM291000 14005KT P6SM -SHRA SCT015 OVC025
      AMD LTD TO CLD VIS AND WIND 2906/2915=

USA.gov is the U.S. government's official web portal to all federal, state and local government web resources and services.